createdAt,value
2022-11-18T00:01:20.803Z,7.90
2022-11-18T00:03:49.333Z,7.88
2022-11-18T00:06:19.937Z,7.84
2022-11-18T00:08:48.092Z,7.83
2022-11-18T00:11:37.833Z,7.84
2022-11-18T00:14:19.223Z,7.73
2022-11-18T00:16:50.265Z,7.79
2022-11-18T00:19:20.683Z,7.75
2022-11-18T00:21:48.065Z,7.74
2022-11-18T00:24:15.540Z,7.70
2022-11-18T00:26:42.767Z,7.67
2022-11-18T00:29:13.697Z,7.71
2022-11-18T00:31:41.075Z,7.67
2022-11-18T00:34:13.236Z,7.72
2022-11-18T00:36:42.016Z,7.64
2022-11-18T00:39:12.874Z,7.65
2022-11-18T00:41:58.686Z,7.62
2022-11-18T00:44:26.272Z,7.61
2022-11-18T00:46:53.968Z,7.59
2022-11-18T00:49:21.785Z,7.47
2022-11-18T00:51:48.860Z,7.44
2022-11-18T00:54:16.093Z,7.52
2022-11-18T00:56:43.148Z,7.37
2022-11-18T00:59:10.411Z,7.44
2022-11-18T01:01:37.861Z,7.40
2022-11-18T01:04:05.315Z,7.43
2022-11-18T01:06:32.573Z,7.43
2022-11-18T01:08:59.696Z,7.47
2022-11-18T01:11:45.469Z,7.47
2022-11-18T01:14:15.243Z,7.39
2022-11-18T01:16:42.428Z,7.45
2022-11-18T01:19:09.701Z,7.39
2022-11-18T01:21:36.767Z,7.32
2022-11-18T01:24:04.214Z,7.31
2022-11-18T01:26:31.096Z,7.34
2022-11-18T01:28:58.521Z,7.34
2022-11-18T01:31:25.703Z,7.36
2022-11-18T01:33:52.833Z,7.31
2022-11-18T01:36:23.772Z,7.36
2022-11-18T01:38:52.073Z,7.23
2022-11-18T01:41:21.436Z,7.17
2022-11-18T01:43:59.357Z,7.18
2022-11-18T01:46:29.844Z,7.00
2022-11-18T01:49:12.039Z,7.10
2022-11-18T01:51:50.951Z,7.09
2022-11-18T01:54:34.944Z,7.02
2022-11-18T01:57:06.247Z,6.92
2022-11-18T01:59:36.313Z,6.86
2022-11-18T02:02:09.480Z,6.84
2022-11-18T02:04:40.924Z,6.79
2022-11-18T02:07:08.370Z,6.70
2022-11-18T02:09:37.766Z,6.69
2022-11-18T02:12:06.929Z,6.64
2022-11-18T02:14:37.946Z,6.56
2022-11-18T02:17:23.278Z,6.49
2022-11-18T02:20:18.511Z,6.41
2022-11-18T02:23:16.509Z,6.38
2022-11-18T02:26:02.452Z,6.37
2022-11-18T02:28:47.938Z,6.39
2022-11-18T02:31:35.824Z,6.38
2022-11-18T02:34:14.874Z,6.37
2022-11-18T02:36:47.935Z,6.37
2022-11-18T02:39:25.268Z,6.35
2022-11-18T02:41:57.029Z,6.40
2022-11-18T02:44:33.113Z,6.29
2022-11-18T02:47:06.532Z,6.21
2022-11-18T02:49:41.561Z,6.12
2022-11-18T02:52:11.898Z,6.12
2022-11-18T02:54:42.311Z,6.09
2022-11-18T02:57:10.239Z,6.12
2022-11-18T02:59:37.055Z,6.11
2022-11-18T03:02:04.665Z,6.13
2022-11-18T03:04:33.875Z,6.05
2022-11-18T03:07:05.861Z,5.90
2022-11-18T03:09:39.506Z,5.88
2022-11-18T03:12:27.682Z,5.99
2022-11-18T03:15:13.071Z,5.96
2022-11-18T03:18:05.124Z,5.97
2022-11-18T03:20:47.754Z,5.93
2022-11-18T03:23:39.086Z,5.98
2022-11-18T03:26:12.880Z,5.92
2022-11-18T03:28:39.967Z,5.86
2022-11-18T03:31:22.066Z,5.71
2022-11-18T03:34:08.110Z,5.84
2022-11-18T03:36:43.875Z,5.84
2022-11-18T03:39:14.955Z,5.75
2022-11-18T03:41:49.585Z,5.51
2022-11-18T03:44:26.761Z,5.77
2022-11-18T03:47:00.650Z,5.76
2022-11-18T03:49:43.585Z,5.70
2022-11-18T03:52:18.505Z,5.65
2022-11-18T03:54:48.660Z,5.57
2022-11-18T03:57:21.763Z,5.60
2022-11-18T03:59:55.328Z,5.37
2022-11-18T04:02:26.111Z,5.47
2022-11-18T04:04:56.232Z,5.49
2022-11-18T04:07:26.545Z,5.44
2022-11-18T04:10:14.898Z,5.51
2022-11-18T04:13:06.156Z,5.47
2022-11-18T04:15:36.849Z,5.50
2022-11-18T04:18:04.237Z,5.48
2022-11-18T04:20:32.546Z,5.43
2022-11-18T04:23:00.296Z,5.45
2022-11-18T04:25:27.791Z,5.47
2022-11-18T04:27:55.364Z,5.51
2022-11-18T04:30:22.878Z,5.50
2022-11-18T04:32:51.922Z,5.48
2022-11-18T04:35:19.815Z,5.46
2022-11-18T04:37:47.192Z,5.45
2022-11-18T04:40:14.401Z,5.48
2022-11-18T04:42:41.855Z,5.48
2022-11-18T04:45:10.319Z,5.46
2022-11-18T04:47:38.625Z,5.46
2022-11-18T04:50:06.442Z,5.41
2022-11-18T04:52:33.822Z,5.40
2022-11-18T04:55:00.745Z,5.39
2022-11-18T04:57:28.049Z,5.42
2022-11-18T04:59:55.074Z,5.39
2022-11-18T05:02:22.557Z,5.38
2022-11-18T05:04:49.760Z,5.34
2022-11-18T05:07:17.377Z,5.31
2022-11-18T05:09:44.672Z,5.29
2022-11-18T05:12:32.151Z,5.24
2022-11-18T05:14:59.968Z,5.25
2022-11-18T05:17:27.341Z,5.31
2022-11-18T05:19:58.175Z,5.32
2022-11-18T05:22:25.528Z,5.34
2022-11-18T05:24:53.550Z,5.33
2022-11-18T05:27:20.585Z,5.38
2022-11-18T05:29:49.149Z,5.39
2022-11-18T05:32:16.590Z,5.45
2022-11-18T05:34:44.007Z,5.40
2022-11-18T05:37:12.631Z,5.47
2022-11-18T05:39:40.329Z,5.43
2022-11-18T05:42:26.891Z,5.54
2022-11-18T05:44:58.128Z,5.56
2022-11-18T05:47:27.292Z,5.57
2022-11-18T05:49:54.730Z,5.65
2022-11-18T05:52:21.731Z,5.72
2022-11-18T05:54:51.390Z,5.87
2022-11-18T05:57:19.678Z,5.89
2022-11-18T05:59:50.295Z,5.97
2022-11-18T06:02:26.408Z,6.02
2022-11-18T06:05:04.622Z,5.84
2022-11-18T06:07:50.196Z,6.33
2022-11-18T06:10:28.749Z,6.29
2022-11-18T06:13:01.584Z,6.42
2022-11-18T06:15:34.960Z,6.44
2022-11-18T06:18:29.303Z,6.59
2022-11-18T06:21:02.837Z,6.70
2022-11-18T06:23:34.631Z,6.84
2022-11-18T06:26:03.388Z,6.93
2022-11-18T06:28:31.677Z,7.01
2022-11-18T06:31:00.967Z,7.06
2022-11-18T06:33:29.106Z,7.13
2022-11-18T06:35:56.831Z,7.23
2022-11-18T06:38:25.611Z,7.41
2022-11-18T06:40:53.330Z,7.48
2022-11-18T06:43:39.447Z,7.62
2022-11-18T06:46:28.650Z,7.81
2022-11-18T06:48:57.519Z,7.87
2022-11-18T06:51:24.918Z,8.02
2022-11-18T06:53:55.602Z,8.08
2022-11-18T06:56:24.219Z,8.06
2022-11-18T06:58:59.939Z,8.22
2022-11-18T07:01:35.284Z,8.29
2022-11-18T07:04:03.253Z,8.41
2022-11-18T07:06:33.048Z,8.61
2022-11-18T07:09:02.887Z,8.62
2022-11-18T07:11:30.974Z,8.87
2022-11-18T07:13:58.881Z,9.01
2022-11-18T07:16:27.825Z,9.08
2022-11-18T07:18:56.082Z,9.19
2022-11-18T07:21:26.007Z,9.37
2022-11-18T07:23:53.866Z,9.52
2022-11-18T07:26:22.000Z,9.69
2022-11-18T07:28:50.477Z,9.84
2022-11-18T07:31:20.704Z,10.02
2022-11-18T07:33:49.067Z,10.13
2022-11-18T07:36:19.984Z,10.27
2022-11-18T07:38:50.902Z,10.42
2022-11-18T07:41:24.435Z,10.66
2022-11-18T07:43:57.584Z,10.73
2022-11-18T07:46:36.449Z,10.99
2022-11-18T07:49:12.470Z,11.05
2022-11-18T07:51:40.843Z,11.21
2022-11-18T07:54:18.134Z,11.36
2022-11-18T07:56:45.961Z,11.46
2022-11-18T07:59:16.714Z,11.60
2022-11-18T08:01:46.622Z,11.71
2022-11-18T08:04:14.327Z,11.86
2022-11-18T08:06:42.437Z,12.00
2022-11-18T08:09:10.640Z,12.13
2022-11-18T08:11:41.078Z,12.25
2022-11-18T08:14:09.480Z,12.39
2022-11-18T08:16:36.988Z,12.52
2022-11-18T08:19:05.284Z,12.61
2022-11-18T08:21:32.889Z,12.79
2022-11-18T08:24:01.285Z,12.85
2022-11-18T08:26:29.581Z,12.92
2022-11-18T08:29:01.652Z,12.97
2022-11-18T08:31:31.796Z,13.00
2022-11-18T08:34:00.722Z,13.13
2022-11-18T08:36:30.212Z,13.20
2022-11-18T08:38:58.938Z,13.24
2022-11-18T08:41:41.139Z,13.36
2022-11-18T08:44:12.378Z,13.48
2022-11-18T08:46:41.136Z,13.58
2022-11-18T08:49:09.465Z,13.71
2022-11-18T08:51:37.907Z,13.81
2022-11-18T08:54:05.835Z,13.90
2022-11-18T08:56:35.633Z,13.97
2022-11-18T08:59:02.766Z,14.17
2022-11-18T09:01:31.665Z,14.25
2022-11-18T09:04:00.196Z,14.31
2022-11-18T09:06:28.270Z,14.44
2022-11-18T09:09:03.474Z,14.51
2022-11-18T09:11:33.575Z,14.59
2022-11-18T09:16:48.662Z,14.63
2022-11-18T09:22:11.232Z,14.81
2022-11-18T09:24:39.855Z,14.88
2022-11-18T09:29:55.429Z,15.08
2022-11-18T09:32:25.566Z,15.08
2022-11-18T09:34:52.932Z,15.24
2022-11-18T09:37:20.338Z,15.35
2022-11-18T09:39:47.885Z,15.48
2022-11-18T09:42:39.993Z,15.56
2022-11-18T09:45:28.876Z,15.68
2022-11-18T09:47:59.983Z,15.78
2022-11-18T09:50:48.603Z,15.82
2022-11-18T09:53:23.810Z,15.99
2022-11-18T09:55:55.727Z,16.08
2022-11-18T09:58:30.640Z,16.18
2022-11-18T10:00:58.630Z,16.17
2022-11-18T10:03:35.174Z,16.26
2022-11-18T10:06:10.237Z,16.26
2022-11-18T10:08:51.613Z,16.33
2022-11-18T10:11:25.682Z,16.30
2022-11-18T10:14:13.317Z,16.09
2022-11-18T10:16:50.908Z,16.35
2022-11-18T10:19:52.909Z,16.39
2022-11-18T10:22:28.172Z,16.51
2022-11-18T10:25:01.353Z,16.53
2022-11-18T10:27:40.228Z,16.58
2022-11-18T10:30:28.521Z,16.60
2022-11-18T10:33:26.694Z,16.73
2022-11-18T10:36:27.109Z,16.86
2022-11-18T10:39:23.438Z,16.82
2022-11-18T10:41:53.605Z,16.98
2022-11-18T10:44:34.639Z,17.06
2022-11-18T10:47:31.636Z,17.08
2022-11-18T10:50:22.553Z,17.16
2022-11-18T10:52:53.833Z,17.27
2022-11-18T10:55:26.170Z,17.19
2022-11-18T10:57:57.236Z,17.39
2022-11-18T11:00:38.134Z,17.46
2022-11-18T11:03:26.571Z,17.49
2022-11-18T11:06:16.229Z,17.59
2022-11-18T11:08:59.338Z,17.62
2022-11-18T11:11:32.246Z,17.68
2022-11-18T11:14:06.473Z,17.72
2022-11-18T11:16:42.011Z,17.77
2022-11-18T11:19:12.387Z,17.90
2022-11-18T11:21:40.160Z,17.93
2022-11-18T11:24:13.468Z,17.97
2022-11-18T11:30:15.949Z,18.11
2022-11-18T11:32:55.225Z,18.21
2022-11-18T11:35:31.083Z,18.25
2022-11-18T11:38:01.050Z,18.29
2022-11-18T11:40:40.202Z,18.37
2022-11-18T11:43:35.241Z,18.37
2022-11-18T11:46:27.274Z,18.47
2022-11-18T11:49:18.357Z,18.58
2022-11-18T11:51:57.482Z,18.60
2022-11-18T11:54:46.833Z,18.67
2022-11-18T11:57:45.574Z,18.75
2022-11-18T12:00:18.637Z,18.93
2022-11-18T12:03:31.732Z,19.01
2022-11-18T12:05:59.517Z,19.05
2022-11-18T12:08:31.466Z,19.09
2022-11-18T12:11:06.256Z,19.08
2022-11-18T12:14:06.554Z,19.11
2022-11-18T12:16:55.540Z,19.16
2022-11-18T12:19:24.321Z,19.21
2022-11-18T12:21:58.406Z,19.31
2022-11-18T12:25:39.104Z,19.32
2022-11-18T12:28:09.150Z,19.24
2022-11-18T12:30:59.776Z,19.19
2022-11-18T12:34:31.903Z,19.08
2022-11-18T12:37:25.402Z,18.99
2022-11-18T12:40:31.556Z,19.04
2022-11-18T12:43:32.590Z,19.11
2022-11-18T12:45:59.941Z,19.10
2022-11-18T12:48:39.752Z,19.17
2022-11-18T12:51:15.689Z,19.23
2022-11-18T12:53:45.259Z,19.28
2022-11-18T12:56:29.134Z,19.34
2022-11-18T12:59:01.178Z,19.37
2022-11-18T13:01:36.658Z,19.11
2022-11-18T13:04:18.722Z,18.97
2022-11-18T13:06:47.578Z,19.02
2022-11-18T13:09:27.690Z,18.96
2022-11-18T13:11:58.850Z,18.94
2022-11-18T13:15:13.723Z,19.01
2022-11-18T13:17:52.096Z,18.99
2022-11-18T13:20:31.380Z,19.01
2022-11-18T13:23:22.186Z,18.97
2022-11-18T13:25:52.851Z,18.88
2022-11-18T13:28:42.497Z,18.84
2022-11-18T13:31:24.766Z,18.80
2022-11-18T13:33:53.299Z,18.75
2022-11-18T13:36:25.853Z,18.78
2022-11-18T13:38:55.739Z,18.76
2022-11-18T13:41:24.971Z,18.79
2022-11-18T13:43:54.129Z,18.81
2022-11-18T13:46:22.778Z,18.77
2022-11-18T13:48:57.693Z,18.68
2022-11-18T13:51:26.512Z,18.76
2022-11-18T13:53:54.604Z,18.72
2022-11-18T13:56:35.062Z,18.63
2022-11-18T13:59:20.663Z,18.59
2022-11-18T14:01:55.050Z,18.49
2022-11-18T14:04:26.028Z,18.38
2022-11-18T14:06:53.169Z,18.39
2022-11-18T14:09:24.205Z,18.32
2022-11-18T14:12:23.171Z,18.23
2022-11-18T14:14:50.726Z,18.13
2022-11-18T14:17:25.842Z,17.93
2022-11-18T14:19:55.185Z,17.91
2022-11-18T14:22:31.241Z,17.88
2022-11-18T14:25:04.065Z,17.81
2022-11-18T14:27:43.478Z,17.81
2022-11-18T14:30:40.102Z,17.63
2022-11-18T14:33:22.889Z,17.46
2022-11-18T14:35:52.749Z,17.35
2022-11-18T14:41:14.187Z,17.12
2022-11-18T14:43:41.837Z,17.01
2022-11-18T14:46:20.021Z,16.88
2022-11-18T14:48:47.317Z,16.83
2022-11-18T14:51:23.564Z,16.72
2022-11-18T14:53:58.457Z,16.61
2022-11-18T14:56:32.075Z,16.46
2022-11-18T14:58:59.462Z,16.38
2022-11-18T15:01:30.764Z,16.29
2022-11-18T15:03:58.443Z,16.13
2022-11-18T15:06:28.887Z,16.02
2022-11-18T15:08:56.255Z,15.92
2022-11-18T15:11:23.781Z,15.92
2022-11-18T15:13:52.730Z,15.87
2022-11-18T15:16:27.221Z,15.83
2022-11-18T15:19:00.230Z,15.72
2022-11-18T15:21:28.253Z,15.68
2022-11-18T15:23:55.285Z,15.63
2022-11-18T15:26:34.622Z,15.53
2022-11-18T15:29:02.567Z,15.54
2022-11-18T15:31:32.255Z,15.48
2022-11-18T15:34:05.256Z,15.35
2022-11-18T15:36:34.021Z,15.32
2022-11-18T15:39:01.279Z,15.30
2022-11-18T15:41:42.171Z,15.20
2022-11-18T15:44:11.166Z,15.14
2022-11-18T15:46:38.518Z,15.10
2022-11-18T15:49:09.100Z,15.08
2022-11-18T15:51:37.377Z,15.10
2022-11-18T15:54:04.490Z,15.01
2022-11-18T15:56:33.111Z,15.07
2022-11-18T15:59:03.635Z,15.04
2022-11-18T16:01:36.012Z,15.00
2022-11-18T16:04:04.336Z,14.98
2022-11-18T16:06:32.225Z,14.90
2022-11-18T16:09:00.547Z,14.79
2022-11-18T16:11:48.365Z,14.68
2022-11-18T16:14:18.830Z,14.62
2022-11-18T16:16:48.592Z,14.60
2022-11-18T16:19:18.437Z,14.54
2022-11-18T16:22:04.689Z,14.53
2022-11-18T16:24:31.745Z,14.46
2022-11-18T16:26:59.111Z,14.45
2022-11-18T16:29:26.385Z,14.27
2022-11-18T16:31:55.041Z,14.29
2022-11-18T16:34:25.408Z,14.29
2022-11-18T16:36:55.069Z,14.28
2022-11-18T16:39:26.130Z,14.23
2022-11-18T16:41:56.960Z,14.22
2022-11-18T16:44:25.615Z,14.15
2022-11-18T16:46:56.800Z,14.14
2022-11-18T16:49:26.402Z,14.11
2022-11-18T16:51:56.002Z,14.09
2022-11-18T16:54:29.490Z,14.11
2022-11-18T16:56:59.545Z,14.09
2022-11-18T16:59:29.149Z,14.07
2022-11-18T17:01:58.847Z,14.09
2022-11-18T17:04:28.504Z,14.06
2022-11-18T17:07:05.320Z,14.05
2022-11-18T17:09:33.081Z,13.96
2022-11-18T17:12:00.651Z,13.93
2022-11-18T17:14:30.361Z,13.90
2022-11-18T17:17:00.194Z,13.84
2022-11-18T17:19:27.308Z,13.88
2022-11-18T17:22:00.389Z,13.84
2022-11-18T17:24:28.202Z,13.82
2022-11-18T17:26:56.828Z,13.82
2022-11-18T17:29:24.402Z,13.85
2022-11-18T17:31:51.936Z,13.82
2022-11-18T17:34:21.926Z,13.80
2022-11-18T17:36:52.492Z,13.79
2022-11-18T17:39:21.034Z,13.86
2022-11-18T17:42:08.415Z,13.94
2022-11-18T17:44:36.553Z,14.05
2022-11-18T17:47:04.016Z,14.11
2022-11-18T17:49:31.904Z,14.30
2022-11-18T17:51:59.058Z,14.43
2022-11-18T17:54:26.240Z,14.56
2022-11-18T17:56:54.032Z,14.65
2022-11-18T17:59:25.537Z,14.84
2022-11-18T18:01:57.559Z,14.80
2022-11-18T18:04:26.693Z,14.97
2022-11-18T18:06:55.228Z,15.03
2022-11-18T18:09:30.089Z,15.07
2022-11-18T18:12:00.474Z,15.13
2022-11-18T18:14:27.441Z,15.17
2022-11-18T18:16:55.398Z,15.22
2022-11-18T18:19:23.914Z,15.24
2022-11-18T18:21:52.115Z,15.24
2022-11-18T18:24:21.112Z,15.22
2022-11-18T18:26:49.310Z,15.20
2022-11-18T18:29:16.526Z,15.22
2022-11-18T18:31:43.432Z,15.22
2022-11-18T18:34:10.854Z,15.20
2022-11-18T18:36:41.288Z,15.25
2022-11-18T18:39:08.529Z,15.25
2022-11-18T18:41:35.724Z,15.27
2022-11-18T18:44:18.079Z,15.23
2022-11-18T18:46:47.620Z,15.25
2022-11-18T18:49:15.996Z,15.12
2022-11-18T18:51:45.404Z,15.09
2022-11-18T18:54:18.334Z,15.07
2022-11-18T18:56:46.466Z,15.00
2022-11-18T18:59:13.693Z,14.91
2022-11-18T19:01:41.427Z,14.90
2022-11-18T19:04:13.640Z,14.84
2022-11-18T19:06:59.919Z,14.88
2022-11-18T19:09:28.800Z,14.81
2022-11-18T19:12:14.160Z,14.69
2022-11-18T19:14:42.469Z,14.63
2022-11-18T19:17:12.978Z,14.68
2022-11-18T19:20:01.539Z,14.61
2022-11-18T19:22:31.028Z,14.53
2022-11-18T19:24:59.389Z,14.50
2022-11-18T19:27:26.890Z,14.38
2022-11-18T19:29:54.047Z,14.41
2022-11-18T19:32:21.810Z,14.42
2022-11-18T19:34:49.347Z,14.43
2022-11-18T19:37:16.894Z,14.46
2022-11-18T19:39:43.765Z,14.41
2022-11-18T19:42:11.988Z,14.43
2022-11-18T19:44:52.579Z,14.42
2022-11-18T19:47:20.828Z,14.36
2022-11-18T19:49:48.041Z,14.28
2022-11-18T19:52:15.418Z,14.30
2022-11-18T19:54:43.143Z,14.27
2022-11-18T19:57:11.119Z,14.24
2022-11-18T19:59:38.477Z,14.26
2022-11-18T20:02:06.538Z,14.29
2022-11-18T20:04:33.943Z,14.28
2022-11-18T20:07:01.642Z,14.32
2022-11-18T20:09:29.053Z,14.34
2022-11-18T20:11:57.141Z,14.39
2022-11-18T20:14:24.306Z,14.42
2022-11-18T20:16:52.030Z,14.44
2022-11-18T20:19:20.845Z,14.40
2022-11-18T20:21:52.739Z,14.38
2022-11-18T20:24:20.202Z,14.38
2022-11-18T20:26:47.716Z,14.41
2022-11-18T20:29:15.189Z,14.41
2022-11-18T20:31:43.336Z,14.41
2022-11-18T20:34:14.642Z,14.39
2022-11-18T20:36:42.509Z,14.32
2022-11-18T20:39:16.871Z,14.35
2022-11-18T20:42:04.656Z,14.40
2022-11-18T20:44:32.268Z,14.41
2022-11-18T20:46:59.920Z,14.43
2022-11-18T20:49:27.226Z,14.45
2022-11-18T20:51:54.807Z,14.48
2022-11-18T20:54:21.673Z,14.50
2022-11-18T20:56:48.745Z,14.55
2022-11-18T20:59:16.366Z,14.55
2022-11-18T21:01:43.929Z,14.56
2022-11-18T21:04:12.267Z,14.54
2022-11-18T21:06:39.647Z,14.47
2022-11-18T21:09:06.963Z,14.51
2022-11-18T21:11:35.886Z,14.54
2022-11-18T21:14:25.117Z,14.51
2022-11-18T21:16:55.714Z,14.51
2022-11-18T21:19:23.984Z,14.45
2022-11-18T21:21:54.108Z,14.44
2022-11-18T21:24:28.590Z,14.43
2022-11-18T21:26:57.943Z,14.44
2022-11-18T21:29:28.523Z,14.41
2022-11-18T21:31:57.905Z,14.48
2022-11-18T21:34:25.794Z,14.44
2022-11-18T21:36:54.911Z,14.42
2022-11-18T21:39:26.264Z,14.45
2022-11-18T21:41:56.619Z,14.40
2022-11-18T21:44:28.207Z,14.41
2022-11-18T21:46:59.897Z,14.49
2022-11-18T21:49:26.818Z,14.43
2022-11-18T21:51:54.039Z,14.42
2022-11-18T21:54:21.751Z,14.42
2022-11-18T21:56:49.027Z,14.43
2022-11-18T21:59:16.600Z,14.36
2022-11-18T22:01:44.276Z,14.37
2022-11-18T22:04:31.258Z,14.38
2022-11-18T22:06:58.588Z,14.33
2022-11-18T22:09:25.586Z,14.29
2022-11-18T22:11:52.851Z,14.27
2022-11-18T22:14:19.792Z,14.24
2022-11-18T22:16:47.272Z,14.27
2022-11-18T22:19:14.442Z,14.28
2022-11-18T22:21:41.785Z,14.22
2022-11-18T22:24:11.719Z,14.25
2022-11-18T22:26:38.884Z,14.23
2022-11-18T22:29:06.416Z,14.23
2022-11-18T22:31:33.952Z,14.29
2022-11-18T22:34:01.571Z,14.27
2022-11-18T22:36:32.391Z,14.21
2022-11-18T22:39:00.170Z,14.29
2022-11-18T22:42:04.016Z,14.27
2022-11-18T22:44:31.575Z,14.29
2022-11-18T22:46:58.963Z,14.30
2022-11-18T22:49:26.753Z,14.25
2022-11-18T22:51:54.463Z,14.25
2022-11-18T22:57:09.242Z,14.21
2022-11-18T22:59:36.590Z,14.11
2022-11-18T23:02:06.111Z,14.16
2022-11-18T23:04:33.772Z,14.24
2022-11-18T23:07:01.411Z,14.23
2022-11-18T23:09:29.185Z,14.20
2022-11-18T23:12:14.663Z,14.16
2022-11-18T23:14:42.487Z,14.12
2022-11-18T23:17:09.730Z,14.18
2022-11-18T23:19:42.054Z,14.13
2022-11-18T23:22:12.915Z,14.12
2022-11-18T23:24:40.162Z,14.12
2022-11-18T23:27:07.892Z,14.06
2022-11-18T23:29:35.014Z,14.02
2022-11-18T23:32:02.320Z,13.98
2022-11-18T23:34:29.232Z,14.02
2022-11-18T23:36:56.404Z,14.00
2022-11-18T23:39:23.445Z,13.99
2022-11-18T23:41:50.811Z,14.06
2022-11-18T23:44:17.759Z,14.12
2022-11-18T23:46:44.915Z,14.15
2022-11-18T23:49:13.063Z,14.14
2022-11-18T23:51:40.607Z,14.20
2022-11-18T23:54:08.623Z,14.22
2022-11-18T23:56:38.300Z,14.26
2022-11-18T23:59:06.729Z,14.27
